Česky Dansk Deutsch English Español Suomi Français Magyar Italiano Nederlands norsk Polski Português svenska Türkçe

 

Het Weer

Roma Fiumicino (Italië)

00:50, 23 augustus 2016 (GMT)

NWNNE
WE
SWSSE
Home            
Roma Fiumicino Pratica Di Mare Roma / Urbe Roma / Ciampino Vigna Di Valle Civitavecchia Guidonia Latina Viterbo Rieti Frosinone Monte Terminillo Monte Argentario Ponza Radicofani Gran Sasso Mountain Range Grosseto Perugia Grazzanise Pescara M. Calamita Arezzo Frontone

Om een weerknop op uw website of weblog te plaatsen, copieer onderstaande code en plak die in uw pagina. In het eerste vakje staat HTML-code, in het tweede vakje UBB-code.


Add to Google

Details

Wind speed:3 bf, 10 kn, 5.1 m/s, 11.5 miles/h, 18.5 km/h
Wind direction:NNE, 020°
Visibility:Greater than 10000 m, 10 km, 32800 ft, 6.2 miles
Clouds:CAVOC
Temperature:22°C, 72°F
Gefühlte Temperatur:25°C, 77°F
Dew-point:6°C, 43°F
Atmospheric pressure:1018 hPa, 763.6 mmHg, 30.06 inHg, 1.005 atm
Relative humidity:35.4 %
METAR:LIRF 230050Z 02010KT CAVOK 22/06 Q1018 NOSIG

Snelkoppelingen

Actuele weersinformatie van de hele wereld. Voeg locaties toe met het plus (+) symbool. Deze snelkoppelingen kunnen worden toegevoegd aan Google.

Lid van de Technetium groep

website free tracking
StatCounter NetStat W3C Validator

27-09-2022 01:08:21
astro.technetium.be money.technetium.be phote.technetium.be tafeltennistafel.technetium.be www.ligfiets.net